LX358 / HB-JCA 7700 Squawk Report (16th of September, 2019)

Aircraft BCS3 Reg No. HB-JCA Age 2 years old
Model CS-300 Jet engines 2 First flight 28-04-17
Registered 19-04-18 Rollout N/A Delivered 27-05-17
Construction No. 55010 Line No. N/A Series BD-500-1A11
ADSHEX 4B17F8 Airline name Swiss International Air Lines Owner N/A
Airfield based Zurich-Kloten~Zurich~HB First tracked 2017-07-13 05:06:00

Flight history for HB-JCA

Route Flight No Date Playback
Dublin (DUB) - Zurich (ZRH) LX407 2019-10-21 19:49:00
Zurich (ZRH) - Dublin (DUB) LX406 2019-10-21 14:26:00
Landvetter (GOT) - Zurich (ZRH) LX1223 2019-10-21 11:16:00
Zurich (ZRH) - Landvetter (GOT) LX1222 2019-10-21 08:48:00
???? N/A 2019-10-21 05:06:00
Dresden (DRS) - Zurich (ZRH) LX919 2019-10-20 19:40:00
Zurich (ZRH) - Dresden (DRS) LX918 2019-10-20 18:04:00
Charles De Gaulle (CDG) - Zurich (ZRH) LX639 2019-10-20 15:38:00
Zurich (ZRH) - Charles De Gaulle (CDG) LX638 2019-10-20 13:23:00
Luxembourg (LUX) - Zurich (ZRH) LX751 2019-10-20 09:36:00
Zurich (ZRH) - Luxembourg (LUX) LX750 2019-10-20 08:50:00
Barajas (MAD) - Zurich (ZRH) LX2031 2019-10-20 06:16:00
Zurich (ZRH) - Barajas (MAD) LX2030 2019-10-19 21:41:00
???? N/A 2019-10-19 18:49:00
Boryspil Intl (KBP) - Zurich (ZRH) LX2291 2019-10-19 16:24:00
Zurich (ZRH) - Boryspil Intl (KBP) LX2290 2019-10-19 13:41:00
Dusseldorf (DUS) - Zurich (ZRH) LX1017 2019-10-19 09:28:00
Zurich (ZRH) - Dusseldorf (DUS) LX1016 2019-10-19 07:51:00
Heathrow (LHR) - Zurich (ZRH) LX325 2019-10-19 05:01:00
Heathrow (LHR) - Zurich (ZRH) LX325 2019-10-17 20:22:00
Time Lat Lon Altitude Heading Speed Vertical Rate
2019-09-16 21:04:25 GMT 46.236790 6.111814 0 135 0 0
2019-09-16 21:04:00 GMT 46.236786 6.111815 0 135 0 0
2019-09-16 21:03:50 GMT 46.236790 6.111814 0 135 0 0
2019-09-16 21:03:40 GMT 46.236786 6.111815 0 135 0 0
2019-09-16 21:03:30 GMT 46.236790 6.111814 0 135 0 0
2019-09-16 21:03:00 GMT 46.236786 6.111815 0 135 0 0
2019-09-16 21:02:40 GMT 46.236790 6.111814 0 135 0 0
2019-09-16 21:02:30 GMT 46.236786 6.111815 0 135 0 0
2019-09-16 21:02:20 GMT 46.236790 6.111814 0 135 0 0
2019-09-16 21:02:05 GMT 46.236786 6.111815 0 135 0 0
2019-09-16 21:01:45 GMT 46.236790 6.111814 0 135 0 0
2019-09-16 21:01:15 GMT 46.236786 6.111815 0 135 0 0
2019-09-16 21:00:45 GMT 46.236790 6.111814 0 135 0 0
2019-09-16 21:00:35 GMT 46.236786 6.111815 0 135 0 0
2019-09-16 21:00:24 GMT 46.236790 6.111814 0 135 0 0
2019-09-16 21:00:05 GMT 46.236786 6.111815 0 135 0 0
2019-09-16 20:59:54 GMT 46.236790 6.111814 0 135 0 0
2019-09-16 20:59:44 GMT 46.236786 6.111815 0 135 0 0
2019-09-16 20:59:24 GMT 46.236790 6.111814 0 135 0 0
2019-09-16 20:58:59 GMT 46.236786 6.111815 0 135 0 0
2019-09-16 20:58:39 GMT 46.236790 6.111814 0 135 0 0
2019-09-16 20:58:29 GMT 46.236786 6.111815 0 135 0 0
2019-09-16 20:58:09 GMT 46.236790 6.111814 0 135 0 0
2019-09-16 20:57:59 GMT 46.236786 6.111815 0 135 0 0
2019-09-16 20:57:49 GMT 46.236790 6.111814 0 135 0 0
2019-09-16 20:57:39 GMT 46.236786 6.111815 0 135 0 0
2019-09-16 20:57:19 GMT 46.236790 6.111814 0 135 0 0
2019-09-16 20:57:09 GMT 46.236786 6.111815 0 135 0 0
2019-09-16 20:56:49 GMT 46.236790 6.111814 0 135 0 0
2019-09-16 20:56:39 GMT 46.236797 6.111815 0 135 0 0
2019-09-16 20:56:19 GMT 46.236786 6.111815 0 135 0 0
2019-09-16 20:56:14 GMT 46.236790 6.111814 0 135 0 0
2019-09-16 20:56:04 GMT 46.236786 6.111815 0 135 0 0
2019-09-16 20:55:45 GMT 46.236790 6.111814 0 135 0 0
2019-09-16 20:55:35 GMT 46.236786 6.111815 0 135 0 0
2019-09-16 20:55:25 GMT 46.236790 6.111814 0 135 0 0
2019-09-16 20:54:35 GMT 46.236786 6.111815 0 135 0 0
2019-09-16 20:54:15 GMT 46.236790 6.111814 0 135 0 0
2019-09-16 20:53:50 GMT 46.236797 6.111815 0 135 0 0
2019-09-16 20:53:30 GMT 46.236790 6.111814 0 135 0 0
2019-09-16 20:53:09 GMT 46.236786 6.111815 0 135 0 0
2019-09-16 20:52:59 GMT 46.236790 6.111814 0 135 0 0
2019-09-16 20:52:50 GMT 46.236786 6.111815 0 135 0 0
2019-09-16 20:52:35 GMT 46.236790 6.111814 0 135 0 0
2019-09-16 20:52:30 GMT 46.236786 6.111815 0 135 0 0
2019-09-16 20:52:19 GMT 46.236790 6.111814 0 135 0 0
2019-09-16 20:52:10 GMT 46.236786 6.111815 0 135 0 0
2019-09-16 20:52:00 GMT 46.236797 6.111815 0 135 0 0
2019-09-16 20:51:15 GMT 46.236790 6.111814 0 135 0 0
2019-09-16 20:50:55 GMT 46.236797 6.111815 0 135 0 0
2019-09-16 20:50:25 GMT 46.236790 6.111814 0 135 0 0
2019-09-16 20:49:51 GMT 46.236786 6.111815 0 135 0 0
2019-09-16 20:49:10 GMT 46.236790 6.111814 0 135 0 0
2019-09-16 20:48:55 GMT 46.236786 6.111815 0 135 0 0
2019-09-16 20:48:41 GMT 46.236790 6.111814 0 135 0 0
2019-09-16 20:48:31 GMT 46.236786 6.111815 0 135 0 0
2019-09-16 20:48:21 GMT 46.236790 6.111814 0 135 0 0
2019-09-16 20:48:11 GMT 46.236786 6.111815 0 135 0 0
2019-09-16 20:47:56 GMT 46.236790 6.111814 0 135 0 0
2019-09-16 20:47:35 GMT 46.236786 6.111815 0 135 0 0
2019-09-16 20:47:15 GMT 46.236790 6.111814 0 135 0 0
2019-09-16 20:47:05 GMT 46.236790 6.111797 0 135 0 0
2019-09-16 20:46:35 GMT 46.236797 6.111798 0 135 0 0
2019-09-16 20:46:26 GMT 46.236790 6.111797 0 135 0 0
2019-09-16 20:46:16 GMT 46.236797 6.111798 0 135 0 0
2019-09-16 20:45:46 GMT 46.236790 6.111814 0 135 0 0
2019-09-16 20:45:25 GMT 46.236797 6.111798 0 135 0 0
2019-09-16 20:45:15 GMT 46.236790 6.111797 0 135 0 0
2019-09-16 20:45:05 GMT 46.236797 6.111815 0 135 0 0
2019-09-16 20:44:40 GMT 46.236790 6.111814 0 135 0 0
2019-09-16 20:44:30 GMT 46.236797 6.111815 0 135 0 0
2019-09-16 20:44:20 GMT 46.236786 6.111815 0 135 0 0
2019-09-16 20:44:10 GMT 46.236790 6.111814 0 135 0 0
2019-09-16 20:44:00 GMT 46.236797 6.111815 0 135 0 0
2019-09-16 20:43:30 GMT 46.236790 6.111814 0 135 0 0
2019-09-16 20:43:20 GMT 46.236797 6.111815 0 135 0 0
2019-09-16 20:43:10 GMT 46.236790 6.111814 0 135 0 0
2019-09-16 20:42:40 GMT 46.236797 6.111815 0 135 0 0
2019-09-16 20:42:25 GMT 46.236790 6.111814 0 135 0 0
2019-09-16 20:42:15 GMT 46.236797 6.111815 0 135 0 0
2019-09-16 20:42:05 GMT 46.236801 6.111814 0 135 0 0
2019-09-16 20:41:45 GMT 46.236790 6.111814 0 135 0 0
2019-09-16 20:41:35 GMT 46.236797 6.111815 0 135 0 0
2019-09-16 20:41:26 GMT 46.236801 6.111814 0 135 0 0
2019-09-16 20:41:06 GMT 46.236797 6.111815 0 135 0 0
2019-09-16 20:40:56 GMT 46.236801 6.111814 0 135 0 0
2019-09-16 20:40:31 GMT 46.236790 6.111814 0 135 0 0
2019-09-16 20:39:51 GMT 46.236797 6.111815 0 135 0 0
2019-09-16 20:39:31 GMT 46.236790 6.111814 0 135 0 0
2019-09-16 20:39:11 GMT 46.236797 6.111815 0 135 0 0
2019-09-16 20:39:01 GMT 46.236801 6.111814 0 135 0 0
2019-09-16 20:38:51 GMT 46.236797 6.111815 0 135 0 0
2019-09-16 20:38:36 GMT 46.236801 6.111814 0 135 0 0
2019-09-16 20:38:31 GMT 46.236797 6.111815 0 135 0 0
2019-09-16 20:38:16 GMT 46.236801 6.111814 0 135 0 0
2019-09-16 20:37:51 GMT 46.236801 6.111797 0 135 0 0
2019-09-16 20:37:36 GMT 46.236797 6.111798 0 135 0 0
2019-09-16 20:37:27 GMT 46.236801 6.111814 0 135 0 0
2019-09-16 20:37:17 GMT 46.236801 6.111797 0 135 0 0
2019-09-16 20:36:42 GMT 46.236797 6.111815 0 135 0 0
2019-09-16 20:36:12 GMT 46.236801 6.111814 0 135 0 0
2019-09-16 20:36:02 GMT 46.236797 6.111798 0 135 0 0
2019-09-16 20:35:42 GMT 46.236790 6.111814 0 135 0 0
2019-09-16 20:35:32 GMT 46.236797 6.111815 0 135 0 0
2019-09-16 20:35:12 GMT 46.236790 6.111814 0 135 0 0
2019-09-16 20:35:02 GMT 46.236786 6.111815 0 135 0 0
2019-09-16 20:34:37 GMT 46.236790 6.111814 0 135 0 0
2019-09-16 20:34:27 GMT 46.236786 6.111815 0 135 0 0
2019-09-16 20:33:57 GMT 46.236790 6.111814 0 135 0 0
2019-09-16 20:33:37 GMT 46.236797 6.111815 0 135 0 0
2019-09-16 20:33:27 GMT 46.236790 6.111814 0 135 0 0
2019-09-16 20:33:17 GMT 46.236797 6.111815 0 135 0 0
2019-09-16 20:33:02 GMT 46.236790 6.111814 0 135 0 0
2019-09-16 20:32:57 GMT 46.236801 6.111814 0 135 0 0
2019-09-16 20:32:32 GMT 46.236790 6.111814 0 135 0 0
2019-09-16 20:32:22 GMT 46.236797 6.111798 0 135 0 0
2019-09-16 20:32:02 GMT 46.236797 6.111815 0 135 0 0
2019-09-16 20:31:41 GMT 46.236790 6.111814 0 135 0 0
2019-09-16 20:31:31 GMT 46.236797 6.111815 0 135 0 0
2019-09-16 20:31:21 GMT 46.236786 6.111815 0 135 0 0
2019-09-16 20:31:11 GMT 46.236790 6.111814 0 135 0 0
2019-09-16 20:30:21 GMT 46.236797 6.111815 0 135 0 0
2019-09-16 20:30:06 GMT 46.236790 6.111814 0 135 0 0
2019-09-16 20:29:56 GMT 46.236801 6.111814 0 135 0 0
2019-09-16 20:29:46 GMT 46.236797 6.111815 0 135 0 0
2019-09-16 20:29:36 GMT 46.236790 6.111814 0 135 0 0
2019-09-16 20:29:26 GMT 46.236797 6.111815 0 135 0 0
2019-09-16 20:29:16 GMT 46.236786 6.111815 0 135 0 0
2019-09-16 20:29:06 GMT 46.236790 6.111814 0 135 0 0
2019-09-16 20:28:46 GMT 46.236797 6.111815 0 135 0 0
2019-09-16 20:28:11 GMT 46.236790 6.111814 0 135 0 0
2019-09-16 20:28:01 GMT 46.236786 6.111815 0 135 0 0
2019-09-16 20:27:50 GMT 46.236790 6.111814 0 135 0 0
2019-09-16 20:27:40 GMT 46.236797 6.111815 0 135 0 0
2019-09-16 20:27:30 GMT 46.236786 6.111815 0 135 0 0
2019-09-16 20:27:20 GMT 46.236797 6.111815 0 135 0 0
2019-09-16 20:27:11 GMT 46.236790 6.111814 0 135 0 0
2019-09-16 20:26:56 GMT 46.236797 6.111815 0 135 0 0
2019-09-16 20:26:50 GMT 46.236786 6.111815 0 135 0 0
2019-09-16 20:25:46 GMT 46.236790 6.111814 0 135 0 0
2019-09-16 20:25:31 GMT 46.236797 6.111815 0 135 0 0
2019-09-16 20:25:26 GMT 46.236790 6.111814 0 135 0 0
2019-09-16 20:24:56 GMT 46.236797 6.111815 0 135 0 0
2019-09-16 20:24:46 GMT 46.236790 6.111814 0 135 0 0
2019-09-16 20:24:26 GMT 46.236797 6.111815 0 135 0 0
2019-09-16 20:24:01 GMT 46.236790 6.111814 0 135 0 0
2019-09-16 20:23:51 GMT 46.236786 6.111815 0 135 0 0
2019-09-16 20:23:41 GMT 46.236790 6.111814 0 135 0 0
2019-09-16 20:23:21 GMT 46.236797 6.111815 0 135 0 0
2019-09-16 20:23:11 GMT 46.236801 6.111814 0 135 0 0
2019-09-16 20:22:41 GMT 46.236797 6.111815 0 135 0 0
2019-09-16 20:22:32 GMT 46.236801 6.111814 0 135 0 0
2019-09-16 20:22:21 GMT 46.236797 6.111815 0 135 0 0
2019-09-16 20:21:57 GMT 46.236801 6.111814 0 135 0 0
2019-09-16 20:21:47 GMT 46.236797 6.111815 0 135 0 0
2019-09-16 20:21:37 GMT 46.236790 6.111814 0 135 0 0
2019-09-16 20:21:17 GMT 46.236801 6.111814 0 135 0 0
2019-09-16 20:20:47 GMT 46.236786 6.111815 0 135 0 0
2019-09-16 20:20:32 GMT 46.236790 6.111814 0 135 0 0
2019-09-16 20:20:22 GMT 46.236786 6.111815 0 135 0 0
2019-09-16 20:19:52 GMT 46.236790 6.111814 0 135 0 0
2019-09-16 20:19:42 GMT 46.236801 6.111814 0 135 0 0
2019-09-16 20:18:57 GMT 46.236797 6.111815 0 135 0 0
2019-09-16 20:18:47 GMT 46.236801 6.111814 0 135 0 0
2019-09-16 20:18:16 GMT 46.236797 6.111815 0 135 0 0
2019-09-16 20:17:56 GMT 46.236801 6.111814 0 135 0 0
2019-09-16 20:17:46 GMT 46.236797 6.111815 0 135 0 0
2019-09-16 20:17:36 GMT 46.236801 6.111814 0 135 0 0
2019-09-16 20:17:21 GMT 46.236797 6.111815 0 135 0 0
2019-09-16 20:17:01 GMT 46.236801 6.111814 0 135 0 0
2019-09-16 20:16:51 GMT 46.236797 6.111798 0 135 0 0
2019-09-16 20:16:41 GMT 46.236797 6.111815 0 135 0 0
2019-09-16 20:15:57 GMT 46.236801 6.111814 0 135 0 0
2019-09-16 20:15:37 GMT 46.236797 6.111815 0 135 0 0
2019-09-16 20:15:17 GMT 46.236801 6.111814 0 135 0 0
2019-09-16 20:15:07 GMT 46.236790 6.111814 0 135 0 0
2019-09-16 20:14:56 GMT 46.236797 6.111815 0 135 0 0
2019-09-16 20:14:47 GMT 46.236790 6.111814 0 135 0 0
2019-09-16 20:14:37 GMT 46.236797 6.111815 0 135 0 0
2019-09-16 20:14:27 GMT 46.236790 6.111814 0 135 0 0
2019-09-16 20:14:16 GMT 46.236797 6.111815 0 135 0 0
2019-09-16 20:14:01 GMT 46.236790 6.111814 0 135 0 0
2019-09-16 20:13:41 GMT 46.236801 6.111814 0 135 0 0
2019-09-16 20:13:31 GMT 46.236797 6.111815 0 135 0 0
2019-09-16 20:13:16 GMT 46.236790 6.111814 0 135 0 0
2019-09-16 20:13:11 GMT 46.236797 6.111815 0 135 0 0
2019-09-16 20:13:01 GMT 46.236790 6.111814 0 135 0 0
2019-09-16 20:12:51 GMT 46.236797 6.111815 0 135 0 0
2019-09-16 20:12:26 GMT 46.236790 6.111814 0 135 0 0
2019-09-16 20:11:37 GMT 46.236797 6.111815 0 135 0 0
2019-09-16 20:11:27 GMT 46.236790 6.111814 0 135 0 0
2019-09-16 20:10:42 GMT 46.236797 6.111815 0 135 0 0
2019-09-16 20:10:31 GMT 46.236790 6.111814 0 135 0 0
2019-09-16 20:09:51 GMT 46.236801 6.111814 0 135 0 0
2019-09-16 20:09:26 GMT 46.236797 6.111815 0 135 0 0
2019-09-16 20:09:17 GMT 46.236801 6.111814 0 135 0 0
2019-09-16 20:09:07 GMT 46.236797 6.111815 0 135 0 0
2019-09-16 20:08:52 GMT 46.236801 6.111814 0 135 0 0
2019-09-16 20:08:47 GMT 46.236797 6.111815 0 135 0 0
2019-09-16 20:08:13 GMT 46.236801 6.111814 0 135 0 0
2019-09-16 20:08:03 GMT 46.236797 6.111815 0 135 0 0
2019-09-16 20:07:53 GMT 46.236801 6.111814 0 135 0 0
2019-09-16 20:07:33 GMT 46.236797 6.111815 0 135 0 0
2019-09-16 20:07:13 GMT 46.236801 6.111814 0 135 0 0
2019-09-16 20:06:58 GMT 46.236809 6.111815 0 135 0 0
2019-09-16 20:06:48 GMT 46.236801 6.111814 0 135 0 0
2019-09-16 20:06:38 GMT 46.236813 6.111814 0 135 0 0
2019-09-16 20:06:28 GMT 46.236801 6.111814 0 135 0 0
2019-09-16 20:06:18 GMT 46.236813 6.111814 0 135 0 0
2019-09-16 20:06:08 GMT 46.236809 6.111815 0 135 0 0
2019-09-16 20:05:58 GMT 46.236801 6.111814 0 135 0 0
2019-09-16 20:05:48 GMT 46.236809 6.111815 0 135 0 0
2019-09-16 20:05:03 GMT 46.236801 6.111814 0 135 0 0
2019-09-16 20:04:43 GMT 46.236797 6.111815 0 135 0 0
2019-09-16 20:04:23 GMT 46.236801 6.111814 0 135 0 0
2019-09-16 20:04:13 GMT 46.236797 6.111815 0 135 0 0
2019-09-16 20:03:59 GMT 46.236801 6.111814 0 135 0 0
2019-09-16 20:03:49 GMT 46.236797 6.111815 0 135 0 0
2019-09-16 20:03:19 GMT 46.236801 6.111814 0 135 0 0
2019-09-16 20:03:09 GMT 46.236797 6.111815 0 135 0 0
2019-09-16 20:02:15 GMT 46.236801 6.111814 0 135 0 0
2019-09-16 20:02:04 GMT 46.236797 6.111815 0 135 0 0
2019-09-16 20:01:54 GMT 46.236801 6.111814 0 135 1 0
2019-09-16 20:01:44 GMT 46.236801 6.111797 0 135 0 0
2019-09-16 20:01:34 GMT 46.236797 6.111798 0 135 0 0
2019-09-16 20:01:24 GMT 46.236797 6.111815 0 135 0 0
2019-09-16 20:01:05 GMT 46.236801 6.111814 0 135 0 0
2019-09-16 20:00:59 GMT 46.236797 6.111815 0 135 0 0
2019-09-16 20:00:30 GMT 46.236801 6.111814 0 135 0 0
2019-09-16 19:59:29 GMT 46.236801 6.111814 0 135 0 0
2019-09-16 19:59:19 GMT 46.236832 6.111765 0 135 0 0
2019-09-16 19:59:07 GMT 46.236870 6.111712 0 135 2 0
2019-09-16 19:58:57 GMT 46.236958 6.111597 0 135 3 0
2019-09-16 19:58:47 GMT 46.236969 6.111564 0 135 0 0
2019-09-16 19:58:36 GMT 46.237003 6.111513 0 135 2 0
2019-09-16 19:58:25 GMT 46.237091 6.111420 0 123 3 0
2019-09-16 19:58:15 GMT 46.237198 6.111214 0 81 5 0
2019-09-16 19:58:03 GMT 46.237072 6.110827 0 45 9 0
2019-09-16 19:57:53 GMT 46.236717 6.110304 0 45 12 0
2019-09-16 19:57:43 GMT 46.236370 6.109772 0 45 11 0
2019-09-16 19:57:33 GMT 46.236019 6.109269 0 45 11 0
2019-09-16 19:57:22 GMT 46.235622 6.108690 0 45 12 0
2019-09-16 19:57:12 GMT 46.235275 6.108164 0 45 10 0
2019-09-16 19:57:07 GMT 46.235115 6.107930 0 45 10 0
2019-09-16 19:57:01 GMT 46.234932 6.107678 0 61 10 0
2019-09-16 19:56:50 GMT 46.234879 6.107077 0 154 10 0
2019-09-16 19:56:39 GMT 46.235401 6.107075 0 194 16 0
2019-09-16 19:56:27 GMT 46.236534 6.107561 0 202 26 0
2019-09-16 19:56:19 GMT 46.237499 6.108313 0 216 34 0
2019-09-16 19:56:08 GMT 46.239040 6.110391 0 225 57 0
2019-09-16 19:55:58 GMT 46.241325 6.113754 0 225 84 0
2019-09-16 19:55:47 GMT 46.244751 6.118782 1,175 226 118 -64
2019-09-16 19:55:36 GMT 46.249229 6.125359 1,275 226 140 -704
2019-09-16 19:55:26 GMT 46.254025 6.132294 1,350 226 142 -768
2019-09-16 19:55:23 GMT 46.256073 6.135315 1,375 226 142 -768
2019-09-16 19:55:15 GMT 46.258942 6.139549 1,450 226 141 -768
2019-09-16 19:55:11 GMT 46.260956 6.142496 1,500 226 141 -832
2019-09-16 19:55:05 GMT 46.263660 6.146439 1,600 226 141 -832
2019-09-16 19:55:01 GMT 46.265800 6.149529 1,625 226 140 -832
2019-09-16 19:54:54 GMT 46.268829 6.153923 1,750 226 141 -832
2019-09-16 19:54:51 GMT 46.270828 6.156876 1,775 226 140 -832
2019-09-16 19:54:43 GMT 46.274139 6.161856 1,850 226 141 -832
2019-09-16 19:54:40 GMT 46.275299 6.163536 1,900 226 141 -768
2019-09-16 19:54:34 GMT 46.278076 6.167684 1,975 226 141 -832
2019-09-16 19:54:30 GMT 46.279953 6.170471 2,025 226 142 -768
2019-09-16 19:54:23 GMT 46.283028 6.174934 2,100 226 142 -768
2019-09-16 19:54:19 GMT 46.284843 6.177612 2,150 226 142 -768
2019-09-16 19:54:12 GMT 46.287827 6.182087 2,225 226 142 -768
2019-09-16 19:54:09 GMT 46.289356 6.184341 2,250 226 142 -832
2019-09-16 19:54:02 GMT 46.292816 6.189456 2,350 226 142 -768
2019-09-16 19:53:59 GMT 46.294151 6.191414 2,375 226 142 -768
2019-09-16 19:53:55 GMT 46.296112 6.194346 2,425 226 142 -768
2019-09-16 19:53:49 GMT 46.298950 6.198567 2,500 226 142 -768
2019-09-16 19:53:44 GMT 46.300949 6.201508 2,550 226 142 -768
2019-09-16 19:53:38 GMT 46.303837 6.205765 2,625 226 144 -768
2019-09-16 19:53:28 GMT 46.308632 6.212769 2,750 225 145 -832
2019-09-16 19:53:17 GMT 46.313782 6.220338 2,875 226 151 -896
2019-09-16 19:53:06 GMT 46.319458 6.228645 3,100 227 161 -960
2019-09-16 19:53:00 GMT 46.322365 6.233093 3,150 227 163 -960
2019-09-16 19:52:56 GMT 46.326973 6.240303 3,400 228 170 -960
2019-09-16 19:52:51 GMT 46.326973 6.240303 3,275 228 168 -1024
2019-09-16 19:52:48 GMT 46.328613 6.242847 3,325 228 169 -1088
2019-09-16 19:52:45 GMT 46.330276 6.245453 3,375 228 170 -1024
2019-09-16 19:52:41 GMT 46.332458 6.248876 3,425 228 170 -960
2019-09-16 19:52:38 GMT 46.334152 6.251623 3,475 228 171 -896
2019-09-16 19:52:34 GMT 46.335892 6.254302 3,550 227 170 -896
2019-09-16 19:52:31 GMT 46.338238 6.257881 3,575 227 171 -896
2019-09-16 19:52:25 GMT 46.341541 6.262825 3,650 226 169 -768
2019-09-16 19:52:21 GMT 46.344940 6.267838 3,725 226 169 -896
2019-09-16 19:52:14 GMT 46.347107 6.270983 3,800 225 171 -896
2019-09-16 19:52:09 GMT 46.349991 6.274935 3,850 223 174 -896
2019-09-16 19:52:04 GMT 46.353321 6.279305 3,925 222 177 -832
2019-09-16 19:52:01 GMT 46.355118 6.281567 3,975 221 179 -832
2019-09-16 19:51:58 GMT 46.357178 6.284046 4,000 220 181 -832
2019-09-16 19:51:54 GMT 46.359924 6.287261 4,075 218 184 -832
2019-09-16 19:51:51 GMT 46.361607 6.289124 4,100 218 184 -832
2019-09-16 19:51:48 GMT 46.363655 6.291389 4,125 218 186 -896
2019-09-16 19:51:44 GMT 46.365982 6.293999 4,175 218 188 -1024
2019-09-16 19:51:41 GMT 46.372173 6.300728 4,325 187 206 -1472
2019-09-16 19:51:36 GMT 46.372173 6.300728 4,325 215 192 -1216
2019-09-16 19:51:32 GMT 46.374481 6.302937 4,375 214 193 -1216
2019-09-16 19:51:27 GMT 46.378925 6.306564 4,500 205 195 -1152
2019-09-16 19:51:23 GMT 46.384964 6.309167 4,575 195 197 -1152
2019-09-16 19:51:20 GMT 46.384964 6.309167 4,600 193 199 -1152
2019-09-16 19:51:16 GMT 46.391586 6.311165 4,750 191 202 -1216
2019-09-16 19:51:13 GMT 46.394009 6.311783 4,750 191 202 -1216
2019-09-16 19:51:10 GMT 46.394009 6.311783 4,800 190 204 -1280
2019-09-16 19:51:05 GMT 46.403824 6.313856 4,950 188 205 -1408
2019-09-16 19:51:00 GMT 46.403824 6.313856 5,025 185 206 -1472
2019-09-16 19:50:55 GMT 46.408447 6.313990 5,150 175 207 -1664
2019-09-16 19:50:49 GMT 46.414165 6.312126 5,300 157 209 -1664
2019-09-16 19:50:43 GMT 46.418518 6.308631 5,425 144 211 -1536
2019-09-16 19:50:40 GMT 46.420898 6.305683 5,500 133 213 -1472
2019-09-16 19:50:37 GMT 46.423187 6.302133 5,575 131 213 -1408
2019-09-16 19:50:34 GMT 46.425156 6.298917 5,650 131 214 -1408
2019-09-16 19:50:30 GMT 46.428364 6.293587 6,000 131 216 -1152
2019-09-16 19:50:23 GMT 46.432022 6.287596 6,000 130 217 -1472
2019-09-16 19:50:18 GMT 46.435822 6.281165 5,950 130 217 -1408
2019-09-16 19:50:13 GMT 46.439163 6.275528 6,050 130 217 -1472
2019-09-16 19:50:08 GMT 46.442139 6.270581 6,225 130 218 -1600
2019-09-16 19:50:03 GMT 46.447216 6.262001 6,400 129 217 -1472
2019-09-16 19:49:59 GMT 46.448410 6.259929 6,450 129 217 -1472
2019-09-16 19:49:52 GMT 46.452431 6.252800 6,775 121 215 -1024
2019-09-16 19:49:46 GMT 46.456715 6.244011 6,700 123 217 -960
2019-09-16 19:49:43 GMT 46.457596 6.242088 6,725 122 216 -1024
2019-09-16 19:49:40 GMT 46.459122 6.238493 6,775 121 216 -960
2019-09-16 19:49:37 GMT 46.462906 6.228767 6,825 118 216 -192
2019-09-16 19:49:34 GMT 46.462906 6.228767 6,825 117 216 64
2019-09-16 19:49:31 GMT 46.463837 6.226158 6,825 116 217 0
2019-09-16 19:49:27 GMT 46.465347 6.221611 6,825 115 217 64
2019-09-16 19:49:24 GMT 46.466629 6.217781 6,825 115 219 64
2019-09-16 19:49:20 GMT 46.468536 6.212288 6,825 116 221 64
2019-09-16 19:49:16 GMT 46.470306 6.207207 6,800 117 224 0
2019-09-16 19:49:09 GMT 46.473660 6.197731 6,825 117 233 -128
2019-09-16 19:49:06 GMT 46.475098 6.193676 6,825 117 235 -256
2019-09-16 19:49:02 GMT 46.477383 6.187294 6,850 117 242 -640
2019-09-16 19:48:59 GMT 46.478733 6.183517 6,875 117 244 -704
2019-09-16 19:48:55 GMT 46.480774 6.177800 6,900 117 245 -896
2019-09-16 19:48:49 GMT 46.484024 6.168622 7,025 116 251 -1088
2019-09-16 19:48:45 GMT 46.486088 6.162712 7,100 117 254 -960
2019-09-16 19:48:38 GMT 46.490089 6.151382 7,200 117 259 -832
2019-09-16 19:48:35 GMT 46.491806 6.146516 7,250 117 261 -896
2019-09-16 19:48:31 GMT 46.493912 6.140621 7,325 116 267 -896
2019-09-16 19:48:27 GMT 46.496048 6.134422 7,350 116 266 -896
2019-09-16 19:48:24 GMT 46.497631 6.129959 7,375 116 268 -896
2019-09-16 19:48:20 GMT 46.499866 6.123505 7,450 116 271 -960
2019-09-16 19:48:16 GMT 46.502335 6.116504 7,575 116 275 -1280
2019-09-16 19:48:13 GMT 46.507599 6.101365 8,425 116 276 -1408
2019-09-16 19:48:07 GMT 46.507599 6.101365 7,675 116 276 -1600
2019-09-16 19:48:03 GMT 46.513599 6.084229 7,825 116 279 -1536
2019-09-16 19:47:56 GMT 46.513599 6.084229 7,925 116 279 -1600
2019-09-16 19:47:52 GMT 46.519730 6.066664 8,225 116 279 -1792
2019-09-16 19:47:46 GMT 46.519730 6.066664 8,250 116 279 -1792
2019-09-16 19:47:41 GMT 46.523281 6.056419 8,375 116 280 -1792
2019-09-16 19:47:34 GMT 46.526733 6.046500 8,550 116 280 -1792
2019-09-16 19:47:31 GMT 46.528107 6.042480 8,625 116 280 -1792
2019-09-16 19:47:22 GMT 46.533615 6.026413 8,925 116 281 -1792
2019-09-16 19:47:19 GMT 46.535248 6.021675 8,975 116 282 -1664
2019-09-16 19:47:15 GMT 46.537575 6.014946 9,075 116 282 -1600
2019-09-16 19:47:10 GMT 46.541428 6.003559 9,425 116 283 -1856
2019-09-16 19:47:05 GMT 46.543438 5.997574 9,350 116 283 -1856
2019-09-16 19:46:59 GMT 46.547024 5.987000 9,525 116 282 -1920
2019-09-16 19:46:51 GMT 46.551632 5.973404 9,775 115 283 -1984
2019-09-16 19:46:48 GMT 46.553146 5.968792 9,850 115 282 -1984
2019-09-16 19:46:44 GMT 46.555683 5.961113 10,000 115 281 -2048
2019-09-16 19:46:38 GMT 46.558804 5.951157 10,175 113 281 -2112
2019-09-16 19:46:31 GMT 46.562714 5.937440 10,450 109 278 -2176
2019-09-16 19:46:28 GMT 46.563812 5.932818 10,550 107 278 -2112
2019-09-16 19:46:23 GMT 46.565460 5.924721 10,675 105 278 -1664
2019-09-16 19:46:20 GMT 46.566422 5.919487 10,750 104 279 -1600
2019-09-16 19:46:17 GMT 46.567474 5.913726 10,825 104 280 -1600
2019-09-16 19:46:10 GMT 46.570084 5.899524 11,025 104 281 -1600
2019-09-16 19:46:06 GMT 46.571091 5.893890 11,100 104 281 -1600
2019-09-16 19:45:55 GMT 46.574581 5.874870 11,325 104 282 -1600
2019-09-16 19:45:49 GMT 46.577282 5.860176 11,550 104 284 -1600
2019-09-16 19:45:46 GMT 46.577957 5.856651 11,550 104 284 -1600
2019-09-16 19:45:35 GMT 46.581482 5.837425 11,875 104 286 -1600
2019-09-16 19:45:30 GMT 46.583103 5.828316 12,000 104 289 -1600
2019-09-16 19:45:23 GMT 46.585419 5.815452 12,100 104 287 -1600
2019-09-16 19:45:20 GMT 46.586426 5.809825 12,250 104 289 -1600
2019-09-16 19:45:15 GMT 46.588318 5.799545 12,375 104 288 -1664
2019-09-16 19:45:10 GMT 46.589760 5.791306 12,500 104 289 -1664
2019-09-16 19:45:04 GMT 46.592087 5.778534 12,675 104 289 -1664
2019-09-16 19:45:00 GMT 46.593430 5.771172 12,775 104 291 -1664
2019-09-16 19:44:53 GMT 46.595718 5.758484 13,125 104 293 -1664
2019-09-16 19:44:50 GMT 46.596741 5.752853 13,250 104 293 -1664
2019-09-16 19:44:43 GMT 46.599243 5.738950 13,200 104 293 -1664
2019-09-16 19:44:39 GMT 46.600372 5.732666 14,850 104 301 -1728
2019-09-16 19:44:33 GMT 46.604279 5.711015 13,550 104 296 -1664
2019-09-16 19:44:28 GMT 46.604279 5.711015 13,600 104 296 -1664
2019-09-16 19:44:22 GMT 46.606888 5.696344 13,800 104 298 -1664
2019-09-16 19:44:19 GMT 46.607391 5.693598 13,825 104 298 -1664
2019-09-16 19:44:13 GMT 46.609638 5.681030 14,000 104 299 -1664
2019-09-16 19:44:08 GMT 46.611080 5.672791 14,250 104 301 -1728
2019-09-16 19:44:02 GMT 46.613297 5.660505 14,275 104 301 -1728
2019-09-16 19:43:58 GMT 46.614662 5.652878 14,375 104 302 -1728
2019-09-16 19:43:55 GMT 46.615860 5.646370 14,475 104 302 -1728
2019-09-16 19:43:52 GMT 46.616714 5.641479 14,550 104 303 -1728
2019-09-16 19:43:48 GMT 46.618343 5.632347 14,675 104 303 -1728
2019-09-16 19:43:45 GMT 46.619411 5.626442 14,750 104 304 -1728
2019-09-16 19:43:42 GMT 46.620438 5.620713 14,825 104 304 -1728
2019-09-16 19:43:37 GMT 46.622112 5.611336 14,950 104 305 -1728
2019-09-16 19:43:32 GMT 46.624100 5.600415 15,100 104 306 -1728
2019-09-16 19:43:24 GMT 46.626953 5.584213 15,325 104 307 -1728
2019-09-16 19:43:21 GMT 46.628025 5.578239 15,400 104 309 -1728
2019-09-16 19:43:16 GMT 46.629700 5.569038 15,525 104 309 -1728
2019-09-16 19:43:13 GMT 46.630829 5.562766 15,600 104 309 -1792
2019-09-16 19:43:10 GMT 46.631744 5.557541 15,675 104 309 -1728
2019-09-16 19:43:05 GMT 46.635147 5.538826 15,875 104 311 -1728
2019-09-16 19:43:01 GMT 46.635147 5.538826 15,925 104 311 -1728
2019-09-16 19:42:55 GMT 46.637196 5.527496 16,150 104 311 -1792
2019-09-16 19:42:51 GMT 46.639252 5.515941 16,250 104 312 -1728
2019-09-16 19:42:48 GMT 46.640083 5.511292 16,300 104 312 -1728
2019-09-16 19:42:44 GMT 46.641403 5.504217 16,400 104 312 -1728
2019-09-16 19:42:40 GMT 46.642868 5.496112 16,525 104 312 -1792
2019-09-16 19:42:33 GMT 46.645576 5.481285 16,725 104 313 -1792
2019-09-16 19:42:29 GMT 46.646740 5.474762 16,800 104 313 -1792
2019-09-16 19:42:23 GMT 46.649139 5.461612 16,975 104 313 -1792
2019-09-16 19:42:19 GMT 46.650696 5.452635 17,100 104 313 -1728
2019-09-16 19:42:12 GMT 46.653030 5.439639 17,275 104 311 -1792
2019-09-16 19:42:09 GMT 46.654175 5.433141 17,375 104 311 -1728
2019-09-16 19:42:01 GMT 46.657333 5.415322 17,600 104 311 -1728
2019-09-16 19:41:58 GMT 46.657974 5.411637 17,650 104 311 -1728
2019-09-16 19:41:51 GMT 46.660538 5.397034 17,900 104 311 -1600
2019-09-16 19:41:48 GMT 46.661636 5.390938 17,900 104 311 -1600
2019-09-16 19:41:43 GMT 46.663452 5.380623 18,050 104 312 -1536
2019-09-16 19:41:38 GMT 46.665268 5.370392 18,150 104 315 -1600
2019-09-16 19:41:33 GMT 46.667267 5.359337 18,300 104 317 -1600
2019-09-16 19:41:30 GMT 46.668320 5.353356 18,350 104 317 -1536
2019-09-16 19:41:27 GMT 46.669556 5.346322 18,425 104 319 -1472
2019-09-16 19:41:20 GMT 46.671970 5.332764 18,725 104 324 -1280
2019-09-16 19:41:16 GMT 46.673458 5.324387 18,675 104 323 -1280
2019-09-16 19:41:12 GMT 46.674911 5.316177 18,750 104 325 -1280
2019-09-16 19:41:08 GMT 46.676579 5.307083 18,825 104 327 -1280
2019-09-16 19:41:05 GMT 46.677750 5.300434 18,900 104 335 -1408
2019-09-16 19:40:59 GMT 46.680210 5.286896 19,025 104 333 -1344
2019-09-16 19:40:52 GMT 46.683105 5.271093 19,175 104 336 -1408
2019-09-16 19:40:47 GMT 46.684616 5.262719 19,250 104 338 -1536
2019-09-16 19:40:41 GMT 46.687099 5.248856 19,375 104 340 -1600
2019-09-16 19:40:37 GMT 46.688541 5.240891 19,500 104 341 -1600
2019-09-16 19:40:31 GMT 46.691116 5.226411 19,875 103 347 -1664
2019-09-16 19:40:24 GMT 46.693634 5.212075 19,825 104 344 -1664
2019-09-16 19:40:19 GMT 46.695526 5.200996 19,925 103 347 -1664
2019-09-16 19:40:16 GMT 46.696831 5.193306 20,050 103 347 -1664
2019-09-16 19:40:08 GMT 46.700226 5.173958 20,225 104 350 -1664
2019-09-16 19:40:05 GMT 46.701279 5.168063 20,350 104 351 -1728
2019-09-16 19:39:57 GMT 46.704666 5.150243 20,525 106 354 -1728
2019-09-16 19:39:53 GMT 46.706680 5.141066 20,625 107 356 -1664
2019-09-16 19:39:47 GMT 46.710434 5.126663 20,825 113 361 -1728
2019-09-16 19:39:44 GMT 46.712563 5.119766 20,875 114 362 -1792
2019-09-16 19:39:40 GMT 46.716290 5.109329 21,050 119 366 -1792
2019-09-16 19:39:37 GMT 46.718010 5.105003 21,100 120 367 -1792
2019-09-16 19:39:32 GMT 46.722748 5.094374 21,150 128 373 -1792
2019-09-16 19:39:29 GMT 46.725460 5.088936 21,325 127 372 -1792
2019-09-16 19:39:26 GMT 46.728439 5.083374 21,400 129 374 -1792
2019-09-16 19:39:23 GMT 46.732315 5.076621 21,500 130 377 -1792
2019-09-16 19:39:19 GMT 46.736816 5.069229 21,600 131 378 -1792
2019-09-16 19:39:15 GMT 46.741379 5.061750 21,700 131 381 -1792
2019-09-16 19:39:12 GMT 46.744312 5.056938 21,775 131 382 -1856
2019-09-16 19:39:08 GMT 46.749161 5.049089 21,900 131 385 -1792
2019-09-16 19:39:04 GMT 46.757492 5.035423 22,100 131 388 -1856
2019-09-16 19:38:58 GMT 46.761166 5.029335 22,175 131 391 -1856
2019-09-16 19:38:51 GMT 46.769588 5.015465 22,400 131 395 -1856
2019-09-16 19:38:48 GMT 46.773605 5.008895 22,475 131 398 -1856
2019-09-16 19:38:43 GMT 46.780529 4.997337 22,650 131 401 -1920
2019-09-16 19:38:37 GMT 46.786674 4.987175 22,800 131 406 -1920
2019-09-16 19:38:32 GMT 46.793701 4.975400 22,975 131 409 -1856
2019-09-16 19:38:28 GMT 46.799240 4.966222 23,100 131 413 -1792
2019-09-16 19:38:20 GMT 46.808350 4.951150 23,275 131 417 -1792
2019-09-16 19:38:15 GMT 46.821304 4.930048 23,450 131 423 -1664
2019-09-16 19:38:10 GMT 46.821304 4.930048 23,600 131 423 -1728
2019-09-16 19:38:07 GMT 46.825745 4.922813 23,675 131 424 -1600
2019-09-16 19:37:59 GMT 46.834854 4.907807 23,850 131 424 -1216
2019-09-16 19:37:56 GMT 46.839931 4.899490 23,925 131 424 -1088
2019-09-16 19:37:49 GMT 46.848907 4.884763 24,050 131 422 -1344
2019-09-16 19:37:46 GMT 46.861679 4.863795 24,225 131 423 -1024
2019-09-16 19:37:39 GMT 46.861679 4.863795 24,175 131 423 -1024
2019-09-16 19:37:34 GMT 46.867630 4.853966 24,250 131 422 -1088
2019-09-16 19:37:28 GMT 46.875137 4.841606 24,375 131 421 -1536
2019-09-16 19:37:24 GMT 46.880386 4.832928 24,500 131 420 -1856
2019-09-16 19:37:18 GMT 46.888458 4.819565 24,675 131 417 -1344
2019-09-16 19:37:15 GMT 46.893311 4.811531 24,725 131 417 -1152
2019-09-16 19:37:07 GMT 46.903519 4.794708 24,875 131 415 -832
2019-09-16 19:37:03 GMT 46.907711 4.787785 24,925 131 415 -768
2019-09-16 19:36:57 GMT 46.915466 4.774933 25,025 131 417 -320
2019-09-16 19:36:53 GMT 46.920319 4.766899 25,000 131 417 -320
2019-09-16 19:36:46 GMT 46.929405 4.751869 25,050 131 418 -512
2019-09-16 19:36:43 GMT 46.933365 4.745338 25,075 131 419 -704
2019-09-16 19:36:36 GMT 46.942612 4.730026 25,300 131 420 -1024
2019-09-16 19:36:33 GMT 46.946350 4.723910 25,300 131 420 -1024
2019-09-16 19:36:28 GMT 46.952087 4.714302 25,300 131 419 -768
2019-09-16 19:36:25 GMT 46.955799 4.708205 25,375 131 419 -832
2019-09-16 19:36:15 GMT 46.968880 4.686444 25,450 131 419 -1024
2019-09-16 19:36:04 GMT 46.983124 4.662804 25,625 131 419 -1216
2019-09-16 19:35:53 GMT 46.998413 4.637329 25,825 131 418 -704
2019-09-16 19:35:43 GMT 47.009399 4.619064 25,900 131 418 -576
2019-09-16 19:35:39 GMT 47.015533 4.608833 25,950 131 420 -512
2019-09-16 19:35:34 GMT 47.021809 4.598342 26,000 131 420 -576
2019-09-16 19:35:27 GMT 47.029861 4.584869 26,000 131 420 -640
2019-09-16 19:35:23 GMT 47.035870 4.574749 26,100 131 422 -768
2019-09-16 19:35:12 GMT 47.049133 4.552666 26,250 131 421 -1024
2019-09-16 19:35:02 GMT 47.062359 4.530522 26,400 131 421 -1088
2019-09-16 19:34:51 GMT 47.076096 4.507622 26,550 131 420 -768
2019-09-16 19:34:40 GMT 47.090744 4.483246 26,750 131 421 -704
2019-09-16 19:34:31 GMT 47.102875 4.463058 26,925 131 423 -704
2019-09-16 19:34:22 GMT 47.114079 4.444322 26,875 131 423 -640
2019-09-16 19:34:18 GMT 47.119755 4.434814 26,900 131 423 -640
2019-09-16 19:34:13 GMT 47.126179 4.423969 27,100 131 425 -768
2019-09-16 19:34:07 GMT 47.145638 4.391433 27,100 150 428 -1152
2019-09-16 19:33:58 GMT 47.145638 4.391433 27,525 131 428 -896
2019-09-16 19:33:48 GMT 47.166168 4.356995 28,300 130 428 -1152
2019-09-16 19:33:37 GMT 47.171997 4.347153 27,350 131 428 -768
2019-09-16 19:33:34 GMT 47.175804 4.340797 27,400 131 428 -896
2019-09-16 19:33:27 GMT 47.186466 4.322838 27,525 131 429 -1088
2019-09-16 19:33:16 GMT 47.199371 4.301147 27,675 130 428 -1088
2019-09-16 19:33:13 GMT 47.203537 4.294144 28,400 130 428 -1152
2019-09-16 19:33:06 GMT 47.212208 4.279457 27,850 131 428 -1152
2019-09-16 19:33:03 GMT 47.216351 4.272414 27,925 131 428 -1088
2019-09-16 19:32:56 GMT 47.225941 4.256216 28,050 131 427 -1024
2019-09-16 19:32:53 GMT 47.229721 4.249855 28,100 131 427 -960
2019-09-16 19:32:45 GMT 47.239609 4.233307 28,200 131 427 -960
2019-09-16 19:32:33 GMT 47.257187 4.204262 28,400 131 427 -960
2019-09-16 19:32:30 GMT 47.259693 4.200158 28,550 131 426 -960
2019-09-16 19:32:24 GMT 47.267513 4.187129 28,525 131 427 -960
2019-09-16 19:32:14 GMT 47.280121 4.165947 28,675 130 426 -960
2019-09-16 19:32:04 GMT 47.293583 4.142832 28,850 130 426 -1152
2019-09-16 19:31:58 GMT 47.301170 4.129521 28,975 129 426 -1088
2019-09-16 19:31:54 GMT 47.306431 4.120155 29,025 129 425 -1088
2019-09-16 19:31:42 GMT 47.320450 4.094124 29,300 127 424 -1088
2019-09-16 19:31:39 GMT 47.323975 4.087257 29,300 127 424 -1088
2019-09-16 19:31:36 GMT 47.327957 4.079361 29,400 126 423 -1088
2019-09-16 19:31:31 GMT 47.332993 4.069130 29,400 125 423 -1088
2019-09-16 19:31:25 GMT 47.340740 4.053533 29,500 134 424 -960
2019-09-16 19:31:21 GMT 47.345123 4.045097 29,550 138 424 -896
2019-09-16 19:31:12 GMT 47.373745 4.006207 29,725 140 424 -768
2019-09-16 19:31:01 GMT 47.373745 4.006207 29,825 140 426 -768
2019-09-16 19:30:53 GMT 47.394043 3.981417 29,925 140 426 -768
2019-09-16 19:30:48 GMT 47.394043 3.981417 29,975 140 426 -576
2019-09-16 19:30:41 GMT 47.408524 3.963867 30,050 140 427 -512
2019-09-16 19:30:34 GMT 47.414337 3.956863 30,325 141 429 -1024
2019-09-16 19:30:30 GMT 47.420624 3.949233 30,125 141 429 -832
2019-09-16 19:30:26 GMT 47.442719 3.923012 30,325 141 429 -1024
2019-09-16 19:30:17 GMT 47.442719 3.923012 30,325 146 428 -1152
2019-09-16 19:30:13 GMT 47.448669 3.916283 30,375 143 429 -1088
2019-09-16 19:30:07 GMT 47.456562 3.907893 30,475 145 429 -1152
2019-09-16 19:29:57 GMT 47.473320 3.892329 30,725 150 428 -1152
2019-09-16 19:29:54 GMT 47.478699 3.887993 30,725 150 428 -1152
2019-09-16 19:29:46 GMT 47.500553 3.870850 30,900 151 428 -960
2019-09-16 19:29:37 GMT 47.508560 3.864582 32,650 186 404 -960
2019-09-16 19:29:34 GMT 47.514149 3.860215 31,050 152 426 -960
2019-09-16 19:29:31 GMT 47.519531 3.855995 31,075 152 425 -1216
2019-09-16 19:29:26 GMT 47.534546 3.844391 31,200 152 426 -1024
2019-09-16 19:29:16 GMT 47.545029 3.836288 31,700 152 423 -1984
2019-09-16 19:29:12 GMT 47.551853 3.831059 31,400 152 423 -1984
2019-09-16 19:29:07 GMT 47.561256 3.823946 31,675 153 419 -3136
2019-09-16 19:29:03 GMT 47.568195 3.818805 31,775 153 417 -3456
2019-09-16 19:28:55 GMT 47.583694 3.808171 32,275 157 405 -2688
2019-09-16 19:28:44 GMT 47.607742 3.795914 32,600 164 400 -704
2019-09-16 19:28:37 GMT 47.612930 3.794016 32,625 168 401 -256
2019-09-16 19:28:29 GMT 47.627747 3.790146 32,675 172 402 -256
2019-09-16 19:28:24 GMT 47.636993 3.788773 32,825 178 404 -320
2019-09-16 19:28:20 GMT 47.644089 3.788292 32,750 183 404 -768
2019-09-16 19:28:14 GMT 47.656223 3.788523 32,775 186 403 -960
2019-09-16 19:28:11 GMT 47.661621 3.789047 32,825 187 403 -1024
2019-09-16 19:28:08 GMT 47.668884 3.790213 32,850 187 403 -1024
2019-09-16 19:28:05 GMT 47.672745 3.791107 32,900 190 402 -1344
2019-09-16 19:27:57 GMT 47.686157 3.795227 33,150 196 396 -1984
2019-09-16 19:27:48 GMT 47.703381 3.803312 33,350 201 392 -960
2019-09-16 19:27:44 GMT 47.708736 3.806481 33,375 202 392 -768
2019-09-16 19:27:39 GMT 47.719208 3.813735 33,450 208 390 -768
2019-09-16 19:27:35 GMT 47.724472 3.817886 33,500 211 388 -768
2019-09-16 19:27:31 GMT 47.729591 3.822397 33,825 257 381 -320
2019-09-16 19:27:24 GMT 47.740856 3.833736 33,675 219 386 -512
2019-09-16 19:27:17 GMT 47.751842 3.847187 33,675 225 385 -384
2019-09-16 19:27:14 GMT 47.754868 3.851395 33,700 224 386 -384
2019-09-16 19:27:11 GMT 47.758499 3.856765 33,825 257 381 -320
2019-09-16 19:27:04 GMT 47.766266 3.869522 33,750 231 384 -320
2019-09-16 19:27:00 GMT 47.770660 3.877762 33,750 234 384 -320
2019-09-16 19:26:55 GMT 47.776154 3.889435 33,775 239 383 -320
2019-09-16 19:26:51 GMT 47.780563 3.899935 33,800 242 383 -320
2019-09-16 19:26:44 GMT 47.785175 3.912964 33,900 255 381 -320
2019-09-16 19:26:40 GMT 47.788513 3.923698 33,850 248 382 -320
2019-09-16 19:26:33 GMT 47.792816 3.940796 33,875 253 381 -320
2019-09-16 19:26:29 GMT 47.794624 3.949585 33,950 264 379 -320
2019-09-16 19:26:25 GMT 47.796440 3.960219 33,925 259 380 -320
2019-09-16 19:26:20 GMT 47.798813 3.981033 33,950 264 380 -320
2019-09-16 19:26:17 GMT 47.798813 3.981033 33,950 263 380 -320
2019-09-16 19:26:12 GMT 47.799637 3.994492 33,975 266 379 -320
2019-09-16 19:26:07 GMT 47.799885 4.007756 34,075 273 378 -320
2019-09-16 19:26:02 GMT 47.799557 4.020221 34,025 274 378 -320
2019-09-16 19:25:59 GMT 47.799133 4.028206 34,100 285 377 -384
2019-09-16 19:25:56 GMT 47.798492 4.035965 34,075 281 377 -384
2019-09-16 19:25:51 GMT 47.797047 4.048462 34,125 291 376 -384
2019-09-16 19:25:48 GMT 47.794189 4.065765 34,125 287 377 -384
2019-09-16 19:25:44 GMT 47.791599 4.077829 34,225 289 376 -384
2019-09-16 19:25:40 GMT 47.789642 4.085576 34,175 291 377 -384
2019-09-16 19:25:36 GMT 47.787827 4.092064 34,225 303 376 -384
2019-09-16 19:25:33 GMT 47.785778 4.098886 34,250 300 376 -384
2019-09-16 19:25:30 GMT 47.785778 4.098886 34,200 296 376 -384
2019-09-16 19:25:27 GMT 47.782883 4.107376 34,225 305 376 -384
2019-09-16 19:25:21 GMT 47.777527 4.121246 34,350 304 376 -384
2019-09-16 19:25:18 GMT 47.775211 4.126704 34,300 305 376 -384
2019-09-16 19:25:09 GMT 47.765579 4.145966 34,350 311 376 -320
2019-09-16 19:25:05 GMT 47.759754 4.155860 34,400 314 377 -320
2019-09-16 19:25:01 GMT 47.756241 4.161278 34,400 316 377 -320
2019-09-16 19:24:58 GMT 47.752991 4.165947 34,400 317 377 -320
2019-09-16 19:24:55 GMT 47.749237 4.170931 34,425 323 378 -320
2019-09-16 19:24:52 GMT 47.745232 4.175931 34,425 322 378 -320
2019-09-16 19:24:49 GMT 47.736015 4.186214 34,475 326 380 -320
2019-09-16 19:24:46 GMT 47.736015 4.186214 34,475 326 380 -320
2019-09-16 19:24:43 GMT 47.730614 4.191848 34,475 326 379 -320
2019-09-16 19:24:39 GMT 47.726440 4.196159 34,475 326 380 -320
2019-09-16 19:24:35 GMT 47.721542 4.201172 35,125 326 386 -384
2019-09-16 19:24:32 GMT 47.715904 4.206989 34,525 326 381 -384
2019-09-16 19:24:27 GMT 47.709961 4.213120 34,550 326 382 -320
2019-09-16 19:24:23 GMT 47.698654 4.224792 34,625 326 384 -384
2019-09-16 19:24:20 GMT 47.698654 4.224792 34,575 326 383 -384
2019-09-16 19:24:16 GMT 47.691185 4.232412 34,600 326 386 -384
2019-09-16 19:24:10 GMT 47.683830 4.239878 34,650 326 386 -384
2019-09-16 19:24:06 GMT 47.678848 4.244948 34,675 326 387 -384
2019-09-16 19:24:03 GMT 47.673866 4.250089 34,675 326 387 -384
2019-09-16 19:23:58 GMT 47.667206 4.256859 34,800 326 388 -384
2019-09-16 19:23:55 GMT 47.662647 4.261569 34,725 326 388 -384
2019-09-16 19:23:52 GMT 47.648254 4.276222 34,750 326 390 -448
2019-09-16 19:23:46 GMT 47.648254 4.276222 34,775 326 391 -448
2019-09-16 19:23:43 GMT 47.643654 4.280935 34,825 326 391 -448
2019-09-16 19:23:39 GMT 47.639187 4.285513 34,850 326 396 -384
2019-09-16 19:23:35 GMT 47.633377 4.291466 34,850 326 393 -448
2019-09-16 19:23:32 GMT 47.623638 4.301429 34,900 326 394 -448
2019-09-16 19:23:24 GMT 47.611023 4.314317 34,950 326 396 -384
2019-09-16 19:23:21 GMT 47.611023 4.314317 34,950 326 396 -384
2019-09-16 19:23:17 GMT 47.604218 4.321198 34,975 326 398 -448
2019-09-16 19:23:13 GMT 47.598919 4.326641 35,025 326 398 -448
2019-09-16 19:23:09 GMT 47.593800 4.331853 35,000 326 401 -384
2019-09-16 19:23:03 GMT 47.578720 4.347153 35,600 326 401 -384
2019-09-16 19:22:59 GMT 47.578720 4.347153 35,050 326 401 -384
2019-09-16 19:22:56 GMT 47.572708 4.353262 35,100 326 403 -256
2019-09-16 19:22:52 GMT 47.566891 4.359178 35,125 326 406 -1088
2019-09-16 19:22:49 GMT 47.563213 4.362910 35,100 326 404 -384
2019-09-16 19:22:43 GMT 47.552692 4.373474 35,200 326 405 -1600
2019-09-16 19:22:39 GMT 47.547867 4.378326 35,275 327 401 -1728
2019-09-16 19:22:35 GMT 47.541092 4.385124 35,350 326 404 -1984
2019-09-16 19:22:29 GMT 47.531525 4.394600 35,650 326 405 0
2019-09-16 19:22:26 GMT 47.526306 4.399818 35,625 326 401 -256
2019-09-16 19:22:22 GMT 47.520493 4.405586 35,650 326 402 0
2019-09-16 19:22:18 GMT 47.514633 4.411491 35,625 326 405 0
2019-09-16 19:22:15 GMT 47.510010 4.416161 35,650 325 408 64
2019-09-16 19:22:12 GMT 47.505981 4.420280 35,650 325 407 64
2019-09-16 19:22:07 GMT 47.497696 4.429001 35,625 325 409 128
2019-09-16 19:22:04 GMT 47.491711 4.435448 35,625 324 412 448
2019-09-16 19:22:01 GMT 47.488495 4.438889 35,550 324 413 960
2019-09-16 19:21:57 GMT 47.482769 4.445097 34,600 309 421 1408
2019-09-16 19:21:54 GMT 47.478439 4.449815 34,600 309 421 1408
2019-09-16 19:21:50 GMT 47.471375 4.458115 35,425 322 416 1216
2019-09-16 19:21:47 GMT 47.467083 4.463407 35,325 320 417 1344
2019-09-16 19:21:44 GMT 47.463776 4.467728 34,975 317 418 1472
2019-09-16 19:21:39 GMT 47.456131 4.478233 35,100 315 419 1472
2019-09-16 19:21:35 GMT 47.446320 4.493197 34,825 309 423 1280
2019-09-16 19:21:29 GMT 47.441154 4.501789 34,875 311 421 1408
2019-09-16 19:21:24 GMT 47.435661 4.511507 34,775 309 422 1344
2019-09-16 19:21:16 GMT 47.426952 4.527776 34,600 309 423 1216
2019-09-16 19:21:12 GMT 47.422028 4.537079 34,575 309 423 1216
2019-09-16 19:21:07 GMT 47.414433 4.551368 34,425 309 422 1408
2019-09-16 19:21:04 GMT 47.411312 4.557213 34,350 309 422 1408
2019-09-16 19:21:00 GMT 47.407562 4.564201 34,025 309 422 1408
2019-09-16 19:20:53 GMT 47.396164 4.585419 34,075 309 421 1408
2019-09-16 19:20:47 GMT 47.387924 4.600662 34,000 309 421 1408
2019-09-16 19:20:44 GMT 47.387924 4.600662 33,100 309 422 1472
2019-09-16 19:20:41 GMT 47.384491 4.606979 33,850 309 421 1408
2019-09-16 19:20:35 GMT 47.377048 4.620596 33,700 309 422 1472
2019-09-16 19:20:32 GMT 47.369568 4.634239 33,550 309 422 1856
2019-09-16 19:20:23 GMT 47.362572 4.647006 33,325 309 424 1984
2019-09-16 19:20:19 GMT 47.357803 4.655731 33,300 309 423 1792
2019-09-16 19:20:13 GMT 47.350204 4.669670 32,750 309 425 2048
2019-09-16 19:20:08 GMT 47.344482 4.680038 32,925 309 425 2112
2019-09-16 19:20:02 GMT 47.337067 4.693565 32,550 310 427 1664
2019-09-16 19:19:57 GMT 47.331116 4.704346 32,575 310 427 1664
2019-09-16 19:19:54 GMT 47.326729 4.712290 32,475 310 427 1664
2019-09-16 19:19:49 GMT 47.320084 4.724190 30,350 310 428 1664
2019-09-16 19:19:46 GMT 47.316208 4.731234 32,250 310 428 1664
2019-09-16 19:19:40 GMT 47.308823 4.744446 31,775 310 431 1600
2019-09-16 19:19:36 GMT 47.304661 4.751939 32,025 310 428 1728
2019-09-16 19:19:30 GMT 47.297241 4.765182 31,850 310 429 1792
2019-09-16 19:19:27 GMT 47.292938 4.772873 31,725 310 429 1792
2019-09-16 19:19:19 GMT 47.283096 4.790382 30,675 310 431 1600
2019-09-16 19:19:15 GMT 47.277428 4.800532 31,450 310 429 1728
2019-09-16 19:19:12 GMT 47.272476 4.809334 31,300 310 429 1728
2019-09-16 19:19:09 GMT 47.269840 4.814054 30,675 310 431 1600
2019-09-16 19:19:06 GMT 47.264648 4.823341 31,150 310 431 1728
2019-09-16 19:19:01 GMT 47.259972 4.831731 30,625 310 431 1792
2019-09-16 19:18:58 GMT 47.255688 4.839407 30,750 310 431 1408
2019-09-16 19:18:54 GMT 47.251236 4.847305 30,825 310 431 1728
2019-09-16 19:18:48 GMT 47.243725 4.860605 28,575 310 430 1664
2019-09-16 19:18:43 GMT 47.237503 4.871681 30,550 310 430 1600
2019-09-16 19:18:38 GMT 47.230911 4.883354 30,350 310 425 1408
2019-09-16 19:18:33 GMT 47.223660 4.896099 30,250 310 430 1664
2019-09-16 19:18:28 GMT 47.218075 4.905959 30,150 310 429 1408
2019-09-16 19:18:21 GMT 47.209534 4.920982 30,000 310 428 1280
2019-09-16 19:18:17 GMT 47.203720 4.931213 29,900 310 428 1280
2019-09-16 19:18:12 GMT 47.198009 4.941242 29,775 310 426 1408
2019-09-16 19:18:09 GMT 47.192368 4.951263 29,700 310 425 1472
2019-09-16 19:18:06 GMT 47.189957 4.955468 29,675 310 425 1472
2019-09-16 19:18:03 GMT 47.186050 4.962318 29,600 310 423 1536
2019-09-16 19:17:59 GMT 47.181438 4.970539 29,525 310 424 1408
2019-09-16 19:17:54 GMT 47.174175 4.983286 29,375 310 423 1600
2019-09-16 19:17:50 GMT 47.169380 4.991666 29,275 310 423 1728
2019-09-16 19:17:46 GMT 47.165146 4.999131 29,150 311 423 1728
2019-09-16 19:17:43 GMT 47.161606 5.005329 29,000 311 422 1728
2019-09-16 19:17:40 GMT 47.152634 5.020752 28,925 311 422 1664
2019-09-16 19:17:37 GMT 47.152634 5.020752 28,900 311 422 1664
2019-09-16 19:17:34 GMT 47.149292 5.026382 28,850 312 422 1664
2019-09-16 19:17:28 GMT 47.141968 5.038261 28,525 322 419 1600
2019-09-16 19:17:24 GMT 47.136097 5.047021 28,525 316 420 1664
2019-09-16 19:17:20 GMT 47.131348 5.053781 28,525 316 420 1664
2019-09-16 19:17:17 GMT 47.126133 5.060542 28,425 319 420 1600
2019-09-16 19:17:14 GMT 47.121666 5.066035 28,325 322 419 1600
2019-09-16 19:17:11 GMT 47.118484 5.069778 28,250 322 418 1600
2019-09-16 19:17:06 GMT 47.109188 5.080402 28,100 323 419 1856
2019-09-16 19:17:00 GMT 47.101555 5.089135 27,950 323 419 1856
2019-09-16 19:16:57 GMT 47.096340 5.095051 27,850 323 419 1856
2019-09-16 19:16:50 GMT 47.083817 5.109347 27,625 323 419 1600
2019-09-16 19:16:46 GMT 47.080139 5.113502 27,425 323 418 1600
2019-09-16 19:16:42 GMT 47.072506 5.122235 27,425 323 418 1472
2019-09-16 19:16:39 GMT 47.067944 5.127446 27,375 323 417 1344
2019-09-16 19:16:35 GMT 47.061996 5.134186 27,025 323 414 1216
2019-09-16 19:16:31 GMT 47.057003 5.139841 27,150 323 415 1088
2019-09-16 19:16:28 GMT 47.051697 5.145927 27,175 323 414 1152
2019-09-16 19:16:25 GMT 47.047440 5.150734 27,125 323 414 1344
2019-09-16 19:16:20 GMT 47.039612 5.159660 27,000 323 412 1472
2019-09-16 19:16:17 GMT 47.035824 5.163926 26,925 323 412 1408
2019-09-16 19:16:13 GMT 47.027893 5.172981 26,825 323 411 1344
2019-09-16 19:16:07 GMT 47.020226 5.181673 26,700 323 410 1472
2019-09-16 19:16:03 GMT 47.015259 5.187263 26,550 323 409 1600
2019-09-16 19:16:00 GMT 47.010498 5.192688 26,550 323 409 1600
2019-09-16 19:15:53 GMT 46.995045 5.210196 26,300 323 409 1600
2019-09-16 19:15:42 GMT 46.982193 5.224703 26,075 323 408 1536
2019-09-16 19:15:39 GMT 46.979095 5.228256 26,025 323 408 1472
2019-09-16 19:15:35 GMT 46.972370 5.235901 25,900 323 408 1536
2019-09-16 19:15:29 GMT 46.964317 5.244986 25,750 323 407 1536
2019-09-16 19:15:26 GMT 46.959412 5.250572 25,700 323 407 1344
2019-09-16 19:15:23 GMT 46.955101 5.255479 25,275 323 407 1344
2019-09-16 19:15:19 GMT 46.948257 5.263226 25,550 323 406 1088
2019-09-16 19:15:13 GMT 46.940250 5.272381 25,450 322 405 1216
2019-09-16 19:15:10 GMT 46.935150 5.278313 25,275 307 401 1024
2019-09-16 19:15:07 GMT 46.931778 5.282241 25,325 322 404 1216
2019-09-16 19:15:03 GMT 46.926006 5.289213 25,250 320 403 1152
2019-09-16 19:14:59 GMT 46.916245 5.302139 25,125 312 401 1088
2019-09-16 19:14:53 GMT 46.910980 5.310585 25,050 311 402 1088
2019-09-16 19:14:49 GMT 46.907776 5.316559 24,925 303 401 896
2019-09-16 19:14:46 GMT 46.904125 5.324355 24,850 294 399 896
2019-09-16 19:14:43 GMT 46.901287 5.331327 24,900 299 400 832
2019-09-16 19:14:37 GMT 46.896446 5.345905 24,825 294 399 896
2019-09-16 19:14:32 GMT 46.893311 5.357140 24,775 292 398 960
2019-09-16 19:14:26 GMT 46.888824 5.373001 24,675 294 396 1152
2019-09-16 19:14:22 GMT 46.879173 5.399428 24,375 305 392 1536
2019-09-16 19:14:15 GMT 46.879173 5.399428 24,425 303 393 1536
2019-09-16 19:14:12 GMT 46.876099 5.405685 24,325 309 391 1536
2019-09-16 19:14:07 GMT 46.869865 5.416330 24,200 314 391 1408
2019-09-16 19:14:01 GMT 46.862835 5.426079 23,925 329 388 1600
2019-09-16 19:13:57 GMT 46.855106 5.434731 23,950 326 388 1536
2019-09-16 19:13:51 GMT 46.847843 5.441460 23,825 331 388 1664
2019-09-16 19:13:46 GMT 46.839752 5.447745 23,750 334 388 1920
2019-09-16 19:13:41 GMT 46.822891 5.459930 23,450 334 388 1536
2019-09-16 19:13:35 GMT 46.822891 5.459930 23,400 334 388 1472
2019-09-16 19:13:30 GMT 46.814236 5.466179 23,275 334 386 1408
2019-09-16 19:13:26 GMT 46.806507 5.471672 23,150 334 385 1472
2019-09-16 19:13:19 GMT 46.797089 5.478493 23,025 334 385 1664
2019-09-16 19:13:15 GMT 46.790726 5.483049 22,775 334 384 1792
2019-09-16 19:13:11 GMT 46.784813 5.487328 22,725 334 384 1792
2019-09-16 19:13:07 GMT 46.778275 5.492025 22,675 334 384 1728
2019-09-16 19:13:04 GMT 46.773361 5.495567 22,600 334 383 1792
2019-09-16 19:12:58 GMT 46.762390 5.503414 22,375 334 382 1792
2019-09-16 19:12:55 GMT 46.757950 5.506629 22,325 334 382 1792
2019-09-16 19:12:48 GMT 46.748108 5.513730 22,075 334 382 1728
2019-09-16 19:12:45 GMT 46.743347 5.517079 22,100 334 382 1664
2019-09-16 19:12:42 GMT 46.736069 5.522372 21,950 334 382 1600
2019-09-16 19:12:38 GMT 46.731949 5.525319 21,875 334 381 1664
2019-09-16 19:12:35 GMT 46.727039 5.528801 21,775 334 380 1728
2019-09-16 19:12:32 GMT 46.722153 5.532353 21,700 334 381 1984
2019-09-16 19:12:28 GMT 46.715515 5.537109 21,575 334 381 1984
2019-09-16 19:12:25 GMT 46.709198 5.541665 21,450 334 381 1920
2019-09-16 19:12:21 GMT 46.705254 5.544456 21,375 334 380 1792
2019-09-16 19:12:17 GMT 46.698971 5.548988 21,275 334 380 1664
2019-09-16 19:12:14 GMT 46.693771 5.552718 21,125 334 379 1664
2019-09-16 19:12:11 GMT 46.688416 5.556536 21,125 334 379 1664
2019-09-16 19:12:07 GMT 46.682739 5.560623 20,975 334 377 1664
2019-09-16 19:12:03 GMT 46.676788 5.564843 20,875 334 377 1600
2019-09-16 19:12:00 GMT 46.670837 5.569131 20,750 334 376 1472
2019-09-16 19:11:56 GMT 46.665253 5.573150 20,650 334 375 1408
2019-09-16 19:11:52 GMT 46.659168 5.577484 20,600 334 373 1536
2019-09-16 19:11:49 GMT 46.652527 5.582261 20,500 334 372 1600
2019-09-16 19:11:45 GMT 46.648647 5.585037 20,475 334 372 1600
2019-09-16 19:11:42 GMT 46.643433 5.588814 20,300 334 370 1600
2019-09-16 19:11:38 GMT 46.633118 5.596194 20,200 334 368 1728
2019-09-16 19:11:32 GMT 46.627029 5.600549 20,075 334 368 1920
2019-09-16 19:11:26 GMT 46.620159 5.605499 19,925 334 368 2112
2019-09-16 19:11:23 GMT 46.615402 5.608855 19,850 334 368 2112
2019-09-16 19:11:18 GMT 46.607208 5.614751 19,650 334 367 1920
2019-09-16 19:11:13 GMT 46.598839 5.620743 19,550 334 366 1856
2019-09-16 19:11:08 GMT 46.592010 5.625670 19,350 334 365 1920
2019-09-16 19:11:03 GMT 46.584267 5.631180 19,225 334 364 2048
2019-09-16 19:11:00 GMT 46.580357 5.633995 19,100 334 364 2048
2019-09-16 19:10:57 GMT 46.575668 5.637326 19,000 334 363 2048
2019-09-16 19:10:53 GMT 46.570393 5.641136 18,900 334 363 2240
2019-09-16 19:10:50 GMT 46.565598 5.644569 18,775 334 363 2240
2019-09-16 19:10:46 GMT 46.558662 5.649513 18,600 334 363 2304
2019-09-16 19:10:43 GMT 46.550400 5.655480 18,400 334 362 2368
2019-09-16 19:10:37 GMT 46.545441 5.659058 18,275 334 362 2368
2019-09-16 19:10:33 GMT 46.538956 5.663653 18,075 334 362 1984
2019-09-16 19:10:29 GMT 46.532780 5.668121 18,000 334 361 1920
2019-09-16 19:10:26 GMT 46.529343 5.670620 17,925 334 361 1856
2019-09-16 19:10:22 GMT 46.522911 5.675194 17,850 334 360 1792
2019-09-16 19:10:19 GMT 46.513695 5.681854 17,625 334 358 1984
2019-09-16 19:10:16 GMT 46.513695 5.681854 17,625 334 358 1984
2019-09-16 19:10:12 GMT 46.507919 5.686028 17,450 334 356 2112
2019-09-16 19:10:09 GMT 46.503479 5.689243 17,350 334 355 2176
2019-09-16 19:10:05 GMT 46.498489 5.692861 17,275 334 355 2176
2019-09-16 19:10:02 GMT 46.491714 5.697751 17,125 334 354 2176
2019-09-16 19:09:58 GMT 46.487160 5.701012 17,000 334 354 2112
2019-09-16 19:09:55 GMT 46.483521 5.703713 16,925 334 353 2048
2019-09-16 19:09:52 GMT 46.477802 5.707809 16,800 334 352 2112
2019-09-16 19:09:49 GMT 46.474308 5.710350 16,700 334 351 2240
2019-09-16 19:09:46 GMT 46.469376 5.713852 16,575 334 351 2304
2019-09-16 19:09:40 GMT 46.461960 5.719188 16,400 335 349 2304
2019-09-16 19:09:34 GMT 46.453217 5.725284 16,225 335 349 2368
2019-09-16 19:09:30 GMT 46.446007 5.729988 15,975 337 348 2624
2019-09-16 19:09:24 GMT 46.436920 5.735399 15,700 340 349 2944
2019-09-16 19:09:20 GMT 46.430969 5.738434 15,525 343 351 2624
2019-09-16 19:09:16 GMT 46.423801 5.741661 15,325 343 353 2688
2019-09-16 19:09:13 GMT 46.420853 5.743036 13,425 343 339 1088
2019-09-16 19:09:09 GMT 46.414768 5.745781 15,100 343 354 2688
2019-09-16 19:09:03 GMT 46.404758 5.750313 14,825 343 354 2560
2019-09-16 19:08:59 GMT 46.398476 5.753197 14,650 343 354 2432
2019-09-16 19:08:52 GMT 46.388351 5.757841 14,400 343 352 2432
2019-09-16 19:08:49 GMT 46.382767 5.760386 14,275 343 352 2432
2019-09-16 19:08:42 GMT 46.372238 5.765210 14,050 343 351 2624
2019-09-16 19:08:38 GMT 46.366821 5.767685 13,825 343 350 2432
2019-09-16 19:08:35 GMT 46.361561 5.770088 13,725 343 348 2304
2019-09-16 19:08:31 GMT 46.355740 5.772766 13,625 343 348 2240
2019-09-16 19:08:27 GMT 46.349594 5.775581 13,450 343 346 2176
2019-09-16 19:08:24 GMT 46.344429 5.777985 13,325 343 345 2176
2019-09-16 19:08:21 GMT 46.340797 5.779633 13,225 343 344 2368
2019-09-16 19:08:17 GMT 46.334244 5.782627 13,125 343 343 2496
2019-09-16 19:08:14 GMT 46.330032 5.784570 12,950 343 341 2560
2019-09-16 19:08:11 GMT 46.324631 5.787048 12,800 343 340 2560
2019-09-16 19:08:08 GMT 46.320545 5.788902 12,625 343 339 2688
2019-09-16 19:08:05 GMT 46.314697 5.791537 12,525 343 339 2816
2019-09-16 19:08:00 GMT 46.309189 5.794052 12,350 343 338 2432
2019-09-16 19:07:57 GMT 46.303619 5.796561 12,050 343 339 1152
2019-09-16 19:07:54 GMT 46.299133 5.798571 12,100 343 339 1920
2019-09-16 19:07:48 GMT 46.289124 5.803116 11,925 343 339 1088
2019-09-16 19:07:44 GMT 46.283890 5.805471 11,875 343 339 1024
2019-09-16 19:07:40 GMT 46.277252 5.808351 11,800 343 339 1024
2019-09-16 19:07:37 GMT 46.273682 5.809959 11,775 343 339 1088
2019-09-16 19:07:34 GMT 46.269196 5.811969 11,750 344 338 1024
2019-09-16 19:07:29 GMT 46.256012 5.817797 11,575 344 338 1088
2019-09-16 19:07:26 GMT 46.256012 5.817797 11,575 344 338 1088
2019-09-16 19:07:19 GMT 46.246719 5.821883 11,425 343 337 1088
2019-09-16 19:07:16 GMT 46.241318 5.824295 11,400 343 336 1088
2019-09-16 19:07:06 GMT 46.227631 5.830376 11,250 343 329 1152
2019-09-16 19:07:03 GMT 46.223858 5.832024 11,200 343 327 1216
2019-09-16 19:06:56 GMT 46.212173 5.837173 11,000 343 315 1536
2019-09-16 19:06:53 GMT 46.208870 5.838615 11,000 343 315 1536
2019-09-16 19:06:46 GMT 46.198395 5.843285 10,700 343 305 1600
2019-09-16 19:06:43 GMT 46.195038 5.844727 10,700 343 303 1664
2019-09-16 19:06:33 GMT 46.182285 5.850494 10,425 343 292 1792
2019-09-16 19:06:23 GMT 46.169159 5.856880 10,000 340 284 3136
2019-09-16 19:06:16 GMT 46.160873 5.861755 9,650 334 282 3136
2019-09-16 19:06:12 GMT 46.156403 5.865158 9,475 332 281 3200
2019-09-16 19:06:05 GMT 46.148895 5.872594 9,025 319 279 3328
2019-09-16 19:06:02 GMT 46.145966 5.876212 8,925 318 279 3328
2019-09-16 19:05:52 GMT 46.137550 5.889977 8,450 305 277 2752
2019-09-16 19:05:42 GMT 46.131592 5.906357 8,025 289 272 2240
2019-09-16 19:05:35 GMT 46.129486 5.919353 7,775 276 267 2112
2019-09-16 19:05:31 GMT 46.129166 5.924645 7,675 272 265 2176
2019-09-16 19:05:22 GMT 46.131042 5.942800 7,250 246 256 1984
2019-09-16 19:05:13 GMT 46.135315 5.954315 6,850 228 242 2112
2019-09-16 19:05:10 GMT 46.137131 5.957604 6,850 228 242 2112
2019-09-16 19:05:03 GMT 46.143185 5.967087 6,750 228 239 2240
2019-09-16 19:05:00 GMT 46.145370 5.970466 6,675 228 237 2304
2019-09-16 19:04:53 GMT 46.150497 5.978438 6,400 228 229 1984
2019-09-16 19:04:49 GMT 46.157009 5.988373 6,125 227 222 1856
2019-09-16 19:04:41 GMT 46.161942 5.995521 5,925 225 208 1728
2019-09-16 19:04:37 GMT 46.161942 5.995521 5,925 225 208 1728
2019-09-16 19:04:30 GMT 46.166473 6.002086 5,750 226 197 1728
2019-09-16 19:04:27 GMT 46.168369 6.004784 5,675 225 195 1728
2019-09-16 19:04:19 GMT 46.173019 6.011531 5,500 226 185 1536
2019-09-16 19:04:12 GMT 46.177872 6.018632 5,125 226 169 1728
2019-09-16 19:04:09 GMT 46.178936 6.020164 5,225 226 173 1472
2019-09-16 19:03:59 GMT 46.184475 6.028336 4,975 226 162 1728
2019-09-16 19:03:55 GMT 46.189636 6.036250 4,650 228 152 2176
2019-09-16 19:03:49 GMT 46.189819 6.036518 4,650 228 152 2240
2019-09-16 19:03:38 GMT 46.194763 6.044289 4,225 228 153 2624
2019-09-16 19:03:28 GMT 46.199745 6.051956 3,825 227 153 2432
2019-09-16 19:03:18 GMT 46.204834 6.059496 3,425 226 152 2432
2019-09-16 19:03:07 GMT 46.210171 6.067268 3,000 225 152 2496
2019-09-16 19:02:57 GMT 46.215088 6.074368 2,625 226 153 2560
2019-09-16 19:02:46 GMT 46.220398 6.082406 2,200 227 154 2368
2019-09-16 19:02:36 GMT 46.225349 6.089859 1,850 227 152 1920
2019-09-16 19:02:28 GMT 46.229324 6.095871 1,575 227 147 2944
2019-09-16 19:02:25 GMT 46.230240 6.097278 1,475 227 147 3008
2019-09-16 19:02:15 GMT 46.235077 6.104553 1,200 226 141 192
2019-09-16 19:02:05 GMT 46.239326 6.110793 0 226 99 0
2019-09-16 19:01:54 GMT 46.241920 6.114595 0 225 52 0
2019-09-16 19:01:44 GMT 46.242954 6.116102 0 230 15 0
2019-09-16 19:01:34 GMT 46.243191 6.116879 0 267 14 0
2019-09-16 19:01:24 GMT 46.243237 6.117685 0 255 12 0
2019-09-16 19:01:13 GMT 46.243366 6.118447 0 258 11 0
2019-09-16 19:01:03 GMT 46.243374 6.119127 0 317 11 0
2019-09-16 19:00:53 GMT 46.242908 6.119316 0 36 13 0
2019-09-16 19:00:42 GMT 46.242363 6.118578 0 45 19 0
2019-09-16 19:00:32 GMT 46.241684 6.117576 0 45 22 0
2019-09-16 19:00:21 GMT 46.240967 6.116535 0 45 19 0
2019-09-16 19:00:11 GMT 46.240437 6.115751 0 45 16 0
2019-09-16 19:00:01 GMT 46.239876 6.114930 0 45 19 0
2019-09-16 18:59:51 GMT 46.239143 6.113858 0 45 22 0
2019-09-16 18:59:41 GMT 46.238422 6.112803 0 45 25 0
2019-09-16 18:59:30 GMT 46.237568 6.111540 0 45 25 0
2019-09-16 18:59:20 GMT 46.236774 6.110391 0 45 23 0
2019-09-16 18:59:10 GMT 46.236053 6.109336 0 45 21 0
2019-09-16 18:59:00 GMT 46.235439 6.108416 0 45 18 0
2019-09-16 18:58:49 GMT 46.234875 6.107578 0 45 16 0
2019-09-16 18:58:39 GMT 46.234371 6.107042 0 348 13 0
2019-09-16 18:58:28 GMT 46.233868 6.107489 0 315 15 0
2019-09-16 18:58:18 GMT 46.233376 6.108030 0 2 13 0
2019-09-16 18:58:07 GMT 46.232792 6.107863 0 22 11 0
2019-09-16 18:57:57 GMT 46.232449 6.107528 0 84 8 0
2019-09-16 18:57:46 GMT 46.232437 6.107059 0 90 5 0
2019-09-16 18:57:26 GMT 46.232437 6.106922 0 90 0 0
2019-09-16 18:57:01 GMT 46.232437 6.106939 0 90 0 0
2019-09-16 18:56:41 GMT 46.232437 6.106925 0 90 0 0
2019-09-16 18:56:31 GMT 46.232437 6.106922 0 90 0 0
2019-09-16 18:56:21 GMT 46.232437 6.106939 0 90 0 0
2019-09-16 18:56:00 GMT 46.232437 6.106925 0 90 0 0
2019-09-16 18:55:50 GMT 46.232437 6.106939 0 90 0 0
2019-09-16 18:55:30 GMT 46.232437 6.106925 0 90 0 0
2019-09-16 18:54:45 GMT 46.232437 6.106922 0 90 0 0
2019-09-16 18:54:26 GMT 46.232437 6.106925 0 90 0 0
2019-09-16 18:53:56 GMT 46.232437 6.106922 0 90 0 0
2019-09-16 18:53:26 GMT 46.232437 6.106925 0 90 0 0
2019-09-16 18:53:16 GMT 46.232437 6.106922 0 90 0 0
2019-09-16 18:53:06 GMT 46.232437 6.106925 0 90 0 0
2019-09-16 18:52:51 GMT 46.232437 6.106922 0 90 0 0
2019-09-16 18:52:11 GMT 46.232437 6.106925 0 90 0 0
2019-09-16 18:51:51 GMT 46.232437 6.106939 0 90 0 0
2019-09-16 18:51:41 GMT 46.232437 6.106922 0 90 0 0
2019-09-16 18:51:31 GMT 46.232437 6.106925 0 90 0 0
2019-09-16 18:51:21 GMT 46.232437 6.106922 0 90 0 0
2019-09-16 18:51:11 GMT 46.232437 6.106925 0 90 0 0
2019-09-16 18:51:01 GMT 46.232437 6.106939 0 90 0 0
2019-09-16 18:50:27 GMT 46.232437 6.106925 0 90 0 0
2019-09-16 18:50:07 GMT 46.232437 6.106939 0 90 0 0
2019-09-16 18:49:47 GMT 46.232437 6.106925 0 90 0 0
2019-09-16 18:49:27 GMT 46.232437 6.106939 0 90 0 0
2019-09-16 18:48:53 GMT 46.232437 6.106925 0 90 0 0
2019-09-16 18:48:28 GMT 46.232437 6.106939 0 90 0 0
2019-09-16 18:48:13 GMT 46.232437 6.106925 0 90 0 0
2019-09-16 18:47:47 GMT 46.232437 6.106939 0 90 0 0
2019-09-16 18:47:42 GMT 46.232437 6.106925 0 90 0 0
2019-09-16 18:47:32 GMT 46.232437 6.106922 0 90 0 0
2019-09-16 18:47:22 GMT 46.232437 6.106925 0 90 0 0
2019-09-16 18:47:02 GMT 46.232437 6.106922 0 90 0 0
2019-09-16 18:46:52 GMT 46.232437 6.106939 0 90 0 0
2019-09-16 18:46:27 GMT 46.232437 6.106925 0 90 0 0
2019-09-16 18:46:17 GMT 46.232437 6.106922 0 90 0 0
2019-09-16 18:46:08 GMT 46.232437 6.106925 0 90 0 0
2019-09-16 18:45:58 GMT 46.232437 6.106922 0 90 0 0
2019-09-16 18:45:48 GMT 46.232437 6.106925 0 90 0 0
2019-09-16 18:45:18 GMT 46.232426 6.106925 0 90 0 0
2019-09-16 18:44:59 GMT 46.232437 6.106922 0 90 0 0
2019-09-16 18:44:34 GMT 46.232437 6.106925 0 90 0 0
2019-09-16 18:44:24 GMT 46.232437 6.106922 0 90 0 0
2019-09-16 18:43:43 GMT 46.232437 6.106925 0 90 0 0
2019-09-16 18:43:33 GMT 46.232437 6.106922 0 90 0 0
2019-09-16 18:43:13 GMT 46.232437 6.106925 0 90 0 0
2019-09-16 18:43:03 GMT 46.232437 6.106922 0 90 0 0
2019-09-16 18:42:38 GMT 46.232437 6.106925 0 90 0 0
2019-09-16 18:42:33 GMT 46.232449 6.106922 0 90 0 0
2019-09-16 18:42:12 GMT 46.232437 6.106922 0 90 0 0
2019-09-16 18:41:28 GMT 46.232437 6.106925 0 90 0 0
2019-09-16 18:41:18 GMT 46.232437 6.106922 0 90 0 0
2019-09-16 18:40:58 GMT 46.232437 6.106925 0 90 0 0
2019-09-16 18:40:38 GMT 46.232437 6.106922 0 90 0 0
2019-09-16 18:40:28 GMT 46.232437 6.106939 0 90 0 0
2019-09-16 18:40:03 GMT 46.232437 6.106925 0 90 0 0
2019-09-16 18:39:53 GMT 46.232437 6.106939 0 90 0 0
2019-09-16 18:39:38 GMT 46.232437 6.106922 0 90 0 0
2019-09-16 18:39:33 GMT 46.232437 6.106925 0 90 0 0
2019-09-16 18:39:03 GMT 46.232437 6.106922 0 90 0 0
2019-09-16 18:38:38 GMT 46.232437 6.106925 0 90 0 0
2019-09-16 18:38:33 GMT 46.232437 6.106922 0 90 0 0
2019-09-16 18:38:18 GMT 46.232437 6.106925 0 90 0 0
2019-09-16 18:37:53 GMT 46.232437 6.106922 0 90 0 0
2019-09-16 18:37:48 GMT 46.232437 6.106925 0 90 0 0
2019-09-16 18:36:49 GMT 46.232437 6.106922 0 90 0 0
2019-09-16 18:36:28 GMT 46.232437 6.106925 0 90 0 0
2019-09-16 18:35:53 GMT 46.232437 6.106922 0 90 0 0
2019-09-16 18:35:13 GMT 46.232426 6.106925 0 90 0 0
2019-09-16 18:34:53 GMT 46.232426 6.106922 0 90 0 0
2019-09-16 18:34:33 GMT 46.232426 6.106925 0 90 0 0
2019-09-16 18:34:22 GMT 46.232437 6.106922 0 90 0 0
2019-09-16 18:33:47 GMT 46.232426 6.106925 0 90 0 0
2019-09-16 18:33:27 GMT 46.232437 6.106922 0 90 0 0
2019-09-16 18:33:17 GMT 46.232437 6.106925 0 90 0 0
2019-09-16 18:33:07 GMT 46.232426 6.106925 0 90 0 0
2019-09-16 18:32:37 GMT 46.232437 6.106922 0 90 0 0
2019-09-16 18:32:27 GMT 46.232437 6.106925 0 90 0 0
2019-09-16 18:32:02 GMT 46.232437 6.106922 0 90 0 0
2019-09-16 18:31:52 GMT 46.232437 6.106925 0 90 0 0
2019-09-16 18:31:42 GMT 46.232437 6.106922 0 90 0 0
2019-09-16 18:30:52 GMT 46.232426 6.106925 0 90 0 0
2019-09-16 18:29:57 GMT 46.232426 6.106922 0 90 0 0
2019-09-16 18:29:41 GMT 46.232426 6.106925 0 90 0 0
2019-09-16 18:29:26 GMT 46.232426 6.106922 0 90 0 0
2019-09-16 18:29:16 GMT 46.232426 6.106925 0 90 0 0
2019-09-16 18:29:06 GMT 46.232426 6.106922 0 90 0 0
2019-09-16 18:28:56 GMT 46.232426 6.106925 0 90 0 0
2019-09-16 18:28:36 GMT 46.232426 6.106922 0 90 0 0
2019-09-16 18:28:07 GMT 46.232426 6.106925 0 90 0 0
2019-09-16 18:27:42 GMT 46.232426 6.106922 0 90 0 0
2019-09-16 18:27:22 GMT 46.232426 6.106925 0 90 0 0
2019-09-16 18:27:12 GMT 46.232426 6.106922 0 90 0 0
2019-09-16 18:26:51 GMT 46.232426 6.106925 0 90 0 0
2019-09-16 18:26:41 GMT 46.232426 6.106922 0 90 0 0
2019-09-16 18:26:31 GMT 46.232437 6.106922 0 90 0 0
2019-09-16 18:26:21 GMT 46.232437 6.106925 0 90 0 0
2019-09-16 18:26:02 GMT 46.232437 6.106939 0 90 0 0
2019-09-16 18:25:51 GMT 46.232437 6.106925 0 90 0 0
2019-09-16 18:25:37 GMT 46.232437 6.106941 0 90 0 0
2019-09-16 18:25:26 GMT 46.232437 6.106939 0 90 0 0
2019-09-16 18:25:06 GMT 46.232437 6.106941 0 90 0 0
2019-09-16 18:24:56 GMT 46.232437 6.106939 0 90 0 0
2019-09-16 18:24:46 GMT 46.232437 6.106941 0 90 0 0
2019-09-16 18:24:11 GMT 46.232437 6.106925 0 90 0 0
2019-09-16 18:24:06 GMT 46.232449 6.106922 0 90 0 0
2019-09-16 18:23:56 GMT 46.232449 6.106925 0 90 0 0
2019-09-16 18:23:41 GMT 46.232449 6.106922 0 90 0 0
2019-09-16 18:23:11 GMT 46.232437 6.106925 0 90 0 0
2019-09-16 18:22:51 GMT 46.232449 6.106922 0 90 0 0

Making use of Plane Finder data

You are free to use the raw flight data, aircraft information and images provided in this report for your own purposes provided the data is correctly attributed to Plane Finder. We ask that you please credit Plane Finder and link to planefinder.net in close proximity to the content.

Optionally one of the following logos (no smaller then 150x24px) can be used and must link to planefinder.net

Embedding the Plane Finder map

You are welcome to embed the Plane Finder playback map on your website to offer visitors a more interactive experience. We suggest using the following HTML code:

<iframe src="//planefinder.net/data/report/LX358-HB-JCA-7700-squawk-2019-09-16/map" width="800" height="600" seamless="seamless"></iframe>

Where our data comes from

Plane Finder has a global network of data feeds and antenna radars that receive data broadcast directly from aircraft. The primary technologies used are ADS-B and MLAT. We also show feeds from the FAA and a FLARM glider feed.

Click here to find out more about the Plane Finder network.

How we collect our data